Time;durP1;ratioP1;P1;durP2;ratioP2;P2;SDS_P1;SDS_P2;PMS_P1;PMS_P2;Temp;Humidity;BMP_temperature;BMP_pressure;BME280_temperature;BME280_humidity;BME280_pressure;Samples;Min_cycle;Max_cycle;Signal;HPM_P1;HPM_P2
2021/01/10 00:00:39;;;;;;;66.22;28.15;;;;;;;0.13;93.57;101146.44;1747112;82;21116;-80
2021/01/10 00:03:07;;;;;;;60.58;27.20;;;;;;;0.13;93.56;101149.06;1747345;81;21580;-81
2021/01/10 00:05:36;;;;;;;56.25;25.52;;;;;;;0.14;93.55;101149.42;1746595;80;21124;-81
2021/01/10 00:08:03;;;;;;;58.80;23.47;;;;;;;0.16;93.54;101143.64;1712830;83;21168;-81
2021/01/10 00:10:30;;;;;;;59.40;26.00;;;;;;;0.17;93.56;101144.03;1748435;81;21191;-81
2021/01/10 00:12:59;;;;;;;59.18;30.05;;;;;;;0.17;93.57;101146.66;1747839;81;21163;-81
2021/01/10 00:15:25;;;;;;;57.70;26.85;;;;;;;0.19;93.58;101148.71;1748241;80;21211;-81
2021/01/10 00:17:53;;;;;;;52.40;23.35;;;;;;;0.18;93.58;101149.63;1748336;82;21155;-81
2021/01/10 00:20:19;;;;;;;52.05;24.87;;;;;;;0.18;93.59;101148.78;1748299;81;21603;-81
2021/01/10 00:22:54;;;;;;;61.65;26.35;;;;;;;0.20;93.62;101146.94;1747784;81;21163;-81
2021/01/10 00:25:20;;;;;;;66.00;26.70;;;;;;;0.17;93.60;101144.03;1748347;81;21128;-81
2021/01/10 00:27:47;;;;;;;59.85;24.90;;;;;;;0.19;93.61;101150.02;1748408;81;22060;-82
2021/01/10 00:30:16;;;;;;;54.42;22.40;;;;;;;0.18;93.61;101148.32;1747927;81;21163;-81
2021/01/10 00:32:51;;;;;;;58.20;28.30;;;;;;;0.17;93.61;101149.28;1748456;81;21667;-81
2021/01/10 00:35:17;;;;;;;67.90;38.23;;;;;;;0.19;93.62;101151.33;1747987;82;21175;-81
2021/01/10 00:37:46;;;;;;;70.45;28.65;;;;;;;0.21;93.64;101158.64;1748119;82;21139;-81
2021/01/10 00:40:13;;;;;;;77.45;36.48;;;;;;;0.20;93.63;101157.43;1717073;82;21286;-81
2021/01/10 00:42:42;;;;;;;71.37;34.55;;;;;;;0.19;93.64;101156.58;1748195;81;21127;-81
2021/01/10 00:45:10;;;;;;;87.00;39.40;;;;;;;0.20;93.64;101160.91;1748534;80;21171;-80
2021/01/10 00:47:36;;;;;;;95.95;39.90;;;;;;;0.21;93.64;101163.88;1748272;80;21191;-80
2021/01/10 00:50:04;;;;;;;80.72;32.08;;;;;;;0.22;93.64;101162.96;1766902;80;21231;-80
2021/01/10 00:52:31;;;;;;;67.70;30.50;;;;;;;0.20;93.65;101166.61;1748225;81;22044;-81
2021/01/10 01:17:02;;;;;;;71.65;28.65;;;;;;;0.29;93.73;101168.24;1864248;75;23292;-80
2021/01/10 01:19:28;;;;;;;75.12;29.55;;;;;;;0.23;93.73;101176.92;1863403;77;21151;-81
2021/01/10 01:22:00;;;;;;;69.67;31.82;;;;;;;0.22;93.73;101181.32;1863083;77;21189;-82
2021/01/10 01:24:26;;;;;;;72.35;29.32;;;;;;;0.23;93.72;101183.02;1863354;77;21596;-82
2021/01/10 01:26:53;;;;;;;67.27;29.00;;;;;;;0.23;93.74;101177.77;1862697;76;21119;-82
2021/01/10 01:29:19;;;;;;;67.22;31.00;;;;;;;0.22;93.75;101177.38;1863186;77;21159;-81
2021/01/10 01:31:46;;;;;;;67.85;30.08;;;;;;;0.23;93.75;101178.23;1863373;77;21150;-82
2021/01/10 01:34:12;;;;;;;67.82;32.13;;;;;;;0.24;93.76;101182.56;1863309;77;21182;-82
2021/01/10 01:36:38;;;;;;;77.30;34.18;;;;;;;0.25;93.76;101176.36;1863171;77;21155;-82
2021/01/10 01:39:05;;;;;;;72.87;32.53;;;;;;;0.26;93.76;101180.22;1863175;76;21560;-81
2021/01/10 01:41:37;;;;;;;70.85;31.33;;;;;;;0.27;93.75;101180.61;1835393;77;21552;-81
2021/01/10 01:44:06;;;;;;;74.07;31.37;;;;;;;0.25;93.77;101185.54;1829410;78;21096;-82
2021/01/10 01:46:37;;;;;;;80.12;35.78;;;;;;;0.23;93.75;101179.09;1857087;77;21202;-81
2021/01/10 01:49:06;;;;;;;70.62;34.60;;;;;;;0.23;93.78;101184.33;1847518;77;21171;-81
2021/01/10 01:51:36;;;;;;;71.97;34.88;;;;;;;0.24;93.78;101183.88;1829334;78;21135;-80
2021/01/10 01:54:04;;;;;;;66.05;32.15;;;;;;;0.22;93.77;101183.09;1829369;78;21180;-81
2021/01/10 01:56:31;;;;;;;62.98;27.27;;;;;;;0.19;93.77;101178.87;1848999;77;21111;-82
2021/01/10 01:59:07;;;;;;;63.25;27.60;;;;;;;0.20;93.76;101182.34;1863110;76;22050;-81
2021/01/10 02:01:36;;;;;;;82.10;31.27;;;;;;;0.20;93.76;101185.81;1863257;77;21115;-81
2021/01/10 02:04:36;;;;;;;51.95;26.12;;;;;;;0.22;93.76;101188.34;1862859;77;21184;-81
2021/01/10 02:07:14;;;;;;;49.98;20.92;;;;;;;0.22;93.77;101183.09;1863114;77;21139;-82
2021/01/10 02:09:44;;;;;;;55.38;23.40;;;;;;;0.20;93.78;101193.69;1861946;77;21138;-82
2021/01/10 02:12:12;;;;;;;57.20;26.27;;;;;;;0.22;93.79;101197.05;1862927;77;21808;-81
2021/01/10 02:14:46;;;;;;;109.22;48.42;;;;;;;0.21;93.78;101195.84;1863033;77;21143;-81
2021/01/10 02:17:14;;;;;;;110.35;54.75;;;;;;;0.21;93.79;101198.47;1854409;77;21158;-82
2021/01/10 02:20:06;;;;;;;80.40;42.13;;;;;;;0.18;93.80;101199.46;1863209;77;21139;-81
2021/01/10 02:22:35;;;;;;;86.55;39.65;;;;;;;0.17;93.77;101192.55;1862944;77;21139;-81
2021/01/10 02:25:02;;;;;;;64.47;29.70;;;;;;;0.18;93.80;101190.74;1863169;76;21815;-81
2021/01/10 02:27:29;;;;;;;54.27;24.57;;;;;;;0.19;93.82;101189.82;1832940;77;21144;-81
2021/01/10 02:29:55;;;;;;;54.08;23.22;;;;;;;0.18;93.81;101198.15;1833799;77;21202;-81
2021/01/10 02:32:23;;;;;;;49.13;23.02;;;;;;;0.19;93.81;101195.92;1862381;76;21569;-81
2021/01/10 02:34:50;;;;;;;48.00;22.20;;;;;;;0.22;93.82;101194.43;1862062;76;21695;-81
2021/01/10 02:37:33;;;;;;;52.67;23.85;;;;;;;0.23;93.82;101190.03;1834115;77;21185;-81
2021/01/10 02:40:13;;;;;;;47.73;22.62;;;;;;;0.23;93.82;101196.13;1809742;77;21131;-81
2021/01/10 02:42:50;;;;;;;54.38;27.50;;;;;;;0.23;93.83;101193.97;1861373;77;21769;-81
2021/01/10 02:45:20;;;;;;;58.48;25.77;;;;;;;0.23;93.83;101189.58;1862551;77;21159;-81
2021/01/10 02:47:48;;;;;;;50.25;23.30;;;;;;;0.21;93.83;101188.80;1861453;77;21118;-81
2021/01/10 02:53:02;;;;;;;57.40;26.82;;;;;;;0.25;93.85;101193.41;1810510;78;22677;-81
2021/01/10 02:55:28;;;;;;;41.33;21.57;;;;;;;0.20;93.84;101195.00;1763488;79;21716;-81
2021/01/10 02:58:02;;;;;;;39.95;19.42;;;;;;;0.20;93.82;101198.93;1796448;79;22187;-81
2021/01/10 03:00:29;;;;;;;39.38;18.60;;;;;;;0.23;93.85;101196.59;1760416;79;21243;-81
2021/01/10 03:02:55;;;;;;;54.40;22.93;;;;;;;0.23;93.84;101201.38;1763451;79;21171;-82
2021/01/10 03:05:26;;;;;;;52.88;25.75;;;;;;;0.23;93.85;101200.06;1766528;80;21123;-81
2021/01/10 03:07:54;;;;;;;54.95;28.23;;;;;;;0.23;93.86;101201.38;1765233;81;21162;-81
2021/01/10 03:10:21;;;;;;;49.27;22.58;;;;;;;0.22;93.87;101199.67;1765025;81;21204;-81
2021/01/10 03:12:48;;;;;;;49.45;24.47;;;;;;;0.20;93.89;101197.62;1765124;81;21552;-82
2021/01/10 03:15:14;;;;;;;65.57;34.98;;;;;;;0.18;93.88;101195.53;1765016;81;21132;-82
2021/01/10 03:17:47;;;;;;;61.92;38.45;;;;;;;0.18;93.89;101202.08;1757024;81;21128;-81
2021/01/10 03:20:20;;;;;;;57.15;36.83;;;;;;;0.17;93.88;101195.17;1756910;81;21129;-81
2021/01/10 03:22:47;;;;;;;54.27;29.37;;;;;;;0.17;93.90;101195.17;1757045;81;21352;-81
2021/01/10 03:25:17;;;;;;;47.55;23.87;;;;;;;0.17;93.89;101192.55;1767269;80;21151;-81
2021/01/10 03:27:43;;;;;;;42.85;21.20;;;;;;;0.17;93.89;101193.01;1784944;80;21132;-81
2021/01/10 03:30:13;;;;;;;41.30;21.60;;;;;;;0.17;93.90;101191.70;1755471;81;21188;-81
2021/01/10 03:32:39;;;;;;;48.35;23.87;;;;;;;0.16;93.90;101188.22;1755429;81;21593;-81
2021/01/10 03:35:06;;;;;;;45.55;23.20;;;;;;;0.17;93.91;101189.92;1755350;81;21264;-81
2021/01/10 03:37:34;;;;;;;38.55;18.60;;;;;;;0.17;93.87;101190.38;1755276;81;21152;-81
2021/01/10 03:40:00;;;;;;;43.38;21.50;;;;;;;0.16;93.91;101188.22;1755471;81;21144;-81
2021/01/10 03:42:26;;;;;;;42.85;23.25;;;;;;;0.15;93.90;101191.77;1755365;81;21639;-82
2021/01/10 03:44:53;;;;;;;39.45;21.48;;;;;;;0.17;93.89;101190.38;1755255;81;21180;-82
2021/01/10 03:47:19;;;;;;;37.38;19.20;;;;;;;0.20;93.91;101197.62;1755392;81;22430;-82
2021/01/10 03:49:45;;;;;;;50.10;28.75;;;;;;;0.21;93.92;101193.22;1754464;81;21180;-82
2021/01/10 03:52:12;;;;;;;57.00;29.12;;;;;;;0.23;93.93;101194.82;1751132;81;21160;-82
2021/01/10 03:54:38;;;;;;;58.92;28.67;;;;;;;0.23;93.93;101192.20;1748184;82;21176;-82
2021/01/10 03:57:04;;;;;;;45.52;22.58;;;;;;;0.22;93.91;101195.74;1746142;80;21224;-82
2021/01/10 03:59:31;;;;;;;48.68;21.90;;;;;;;0.20;93.93;101185.81;1744250;82;21254;-82
2021/01/10 04:01:57;;;;;;;52.00;20.95;;;;;;;0.21;93.94;101194.05;1743976;82;21136;-82
2021/01/10 04:04:23;;;;;;;48.98;21.00;;;;;;;0.20;93.92;101192.83;1743595;82;21185;-82
2021/01/10 04:06:50;;;;;;;47.00;22.75;;;;;;;0.20;93.93;101187.13;1743476;82;21176;-82
2021/01/10 04:09:16;;;;;;;51.77;24.67;;;;;;;0.20;93.90;101193.69;1743781;82;21196;-82
2021/01/10 04:11:42;;;;;;;41.48;19.07;;;;;;;0.23;93.92;101194.82;1742889;82;22076;-81
2021/01/10 04:14:09;;;;;;;61.20;33.33;;;;;;;0.25;93.92;101195.57;1743601;82;21196;-82
2021/01/10 04:16:35;;;;;;;69.40;37.70;;;;;;;0.25;93.92;101196.88;1777483;80;21163;-81
2021/01/10 04:19:02;;;;;;;57.40;31.02;;;;;;;0.25;93.94;101192.95;1780062;80;21196;-81
2021/01/10 04:21:35;;;;;;;57.50;29.92;;;;;;;0.27;93.93;101190.25;1780425;80;21590;-81
2021/01/10 04:24:03;;;;;;;54.15;25.30;;;;;;;0.27;93.95;101191.56;1777954;80;21183;-81
2021/01/10 04:26:30;;;;;;;49.35;22.98;;;;;;;0.27;93.92;101189.80;1760052;81;21648;-81
2021/01/10 04:28:56;;;;;;;49.73;23.00;;;;;;;0.31;93.95;101198.34;1759876;81;21215;-82
2021/01/10 04:31:23;;;;;;;56.70;26.15;;;;;;;0.30;93.95;101192.70;1759782;81;21223;-82
2021/01/10 04:33:49;;;;;;;50.48;24.90;;;;;;;0.29;93.95;101194.47;1759175;81;21219;-82
2021/01/10 04:36:16;;;;;;;55.73;26.40;;;;;;;0.27;93.96;101193.72;1759868;81;21211;-81
2021/01/10 04:38:42;;;;;;;50.45;23.55;;;;;;;0.27;93.98;101199.44;1759940;81;21167;-82
2021/01/10 04:41:09;;;;;;;52.08;25.90;;;;;;;0.25;93.96;101196.03;1760079;81;21604;-80
2021/01/10 04:43:35;;;;;;;56.13;28.55;;;;;;;0.24;93.97;101191.28;1708125;81;21152;-82
2021/01/10 04:46:01;;;;;;;57.03;29.27;;;;;;;0.24;93.97;101199.15;1759793;81;21139;-82
2021/01/10 04:48:28;;;;;;;56.40;30.57;;;;;;;0.21;93.97;101196.66;1759928;81;21230;-82
2021/01/10 04:50:54;;;;;;;44.20;21.95;;;;;;;0.22;93.99;101199.67;1759654;81;21605;-82
2021/01/10 04:53:21;;;;;;;42.78;22.95;;;;;;;0.20;93.99;101200.23;1717431;82;21159;-82
2021/01/10 04:55:47;;;;;;;45.60;21.93;;;;;;;0.19;93.97;101201.16;1743006;82;21185;-82
2021/01/10 04:58:14;;;;;;;39.25;20.32;;;;;;;0.21;93.97;101207.16;1778974;80;21187;-82
2021/01/10 05:00:40;;;;;;;40.52;19.98;;;;;;;0.21;93.97;101212.40;1775939;80;21262;-82
2021/01/10 05:03:10;;;;;;;45.43;19.42;;;;;;;0.21;94.00;101213.71;1746616;82;21164;-82
2021/01/10 05:05:38;;;;;;;34.15;17.77;;;;;;;0.22;93.98;101220.66;1747078;80;21577;-82
2021/01/10 05:08:10;;;;;;;41.00;19.50;;;;;;;0.25;93.98;101219.17;1746611;82;21605;-81
2021/01/10 05:10:37;;;;;;;43.55;20.75;;;;;;;0.25;93.97;101212.62;1747745;81;21192;-81
2021/01/10 05:13:05;;;;;;;61.42;37.73;;;;;;;0.26;93.96;101210.38;1748134;82;22008;-81
2021/01/10 05:15:32;;;;;;;52.93;27.93;;;;;;;0.27;93.96;101214.70;1748286;81;21606;-81
2021/01/10 05:17:58;;;;;;;49.90;26.77;;;;;;;0.29;93.97;101215.45;1780659;79;21160;-81
2021/01/10 05:20:32;;;;;;;42.53;24.47;;;;;;;0.30;93.97;101221.55;1780497;80;21128;-81
2021/01/10 05:23:01;;;;;;;43.20;22.80;;;;;;;0.30;93.97;101217.62;1780739;80;21163;-81
2021/01/10 05:25:28;;;;;;;46.25;23.18;;;;;;;0.30;93.97;101218.93;1780409;80;21273;-81
2021/01/10 05:27:56;;;;;;;39.20;19.82;;;;;;;0.29;93.99;101222.02;1780386;80;21180;-81
2021/01/10 05:30:33;;;;;;;41.92;20.05;;;;;;;0.31;94.01;101216.70;1784361;79;21152;-81
2021/01/10 05:33:07;;;;;;;43.50;22.32;;;;;;;0.28;94.00;101220.80;1787491;80;21174;-82
2021/01/10 05:35:55;;;;;;;40.03;21.27;;;;;;;0.25;94.00;101221.80;1787479;79;21628;-82
2021/01/10 05:38:29;;;;;;;41.23;21.15;;;;;;;0.23;94.00;101215.80;1787220;80;22114;-82
2021/01/10 05:40:58;;;;;;;49.38;24.25;;;;;;;0.20;94.00;101222.53;1787458;80;21191;-81
2021/01/10 05:43:25;;;;;;;51.35;28.80;;;;;;;0.18;94.00;101223.06;1787631;79;21127;-82
2021/01/10 05:45:51;;;;;;;45.73;27.13;;;;;;;0.15;94.01;101226.31;1787432;80;21176;-82
2021/01/10 05:48:18;;;;;;;39.60;24.60;;;;;;;0.12;94.00;101223.41;1787569;80;21163;-82
2021/01/10 05:50:51;;;;;;;39.50;21.55;;;;;;;0.11;93.98;101229.57;1787072;79;22088;-82
2021/01/10 05:53:22;;;;;;;40.15;22.02;;;;;;;0.10;94.03;101233.14;1787511;78;21236;-82
2021/01/10 05:55:59;;;;;;;37.35;19.98;;;;;;;0.07;93.99;101235.91;1784393;79;21569;-82
2021/01/10 05:58:30;;;;;;;32.85;18.02;;;;;;;0.06;94.01;101234.23;1645833;84;22247;-82
2021/01/10 06:01:12;;;;;;;33.87;16.70;;;;;;;0.04;93.99;101231.29;1641794;86;21212;-82
2021/01/10 06:03:40;;;;;;;33.95;17.77;;;;;;;0.04;94.00;101225.59;1640032;87;21290;-81
2021/01/10 06:06:07;;;;;;;35.98;16.48;;;;;;;0.03;93.98;101231.78;1640056;87;21201;-81
2021/01/10 06:08:38;;;;;;;32.05;16.23;;;;;;;0.04;93.98;101236.53;1639914;87;21257;-81
2021/01/10 06:11:20;;;;;;;38.17;19.90;;;;;;;0.04;93.96;101240.01;1640182;87;21277;-81
2021/01/10 06:14:06;;;;;;;43.02;23.73;;;;;;;0.10;93.97;101230.52;1852009;77;22706;-82
2021/01/10 06:16:34;;;;;;;41.23;21.35;;;;;;;0.06;93.96;101230.30;1824283;78;21568;-82
2021/01/10 06:19:06;;;;;;;41.95;21.90;;;;;;;0.08;93.98;101234.98;1823804;78;22219;-81
2021/01/10 06:21:34;;;;;;;33.80;19.17;;;;;;;0.09;93.98;101236.69;1824141;78;21207;-81
2021/01/10 06:24:05;;;;;;;35.35;19.52;;;;;;;0.10;93.97;101238.39;1824157;78;21163;-81
2021/01/10 06:26:33;;;;;;;34.80;18.70;;;;;;;0.09;93.99;101239.31;1823957;78;21211;-81
2021/01/10 06:29:09;;;;;;;37.00;19.57;;;;;;;0.09;94.01;101238.45;1824215;78;21183;-81
2021/01/10 06:31:38;;;;;;;36.03;17.92;;;;;;;0.08;93.98;101245.47;1760922;79;21227;-82
2021/01/10 06:34:10;;;;;;;35.30;18.65;;;;;;;0.09;94.00;101239.77;1811593;78;21127;-81
2021/01/10 06:36:41;;;;;;;32.70;18.00;;;;;;;0.09;94.02;101247.17;1791826;80;21593;-82
2021/01/10 06:39:11;;;;;;;38.67;18.82;;;;;;;0.07;94.03;101249.51;1791762;80;21175;-82
2021/01/10 06:42:06;;;;;;;30.77;17.75;;;;;;;0.07;94.01;101249.02;1791473;80;21154;-82
2021/01/10 06:44:35;;;;;;;32.30;20.02;;;;;;;0.08;94.02;101250.72;1791579;80;22163;-82
2021/01/10 06:47:01;;;;;;;39.67;21.82;;;;;;;0.08;94.02;101249.41;1791735;80;21160;-82
2021/01/10 06:49:28;;;;;;;30.88;15.45;;;;;;;0.11;94.05;101249.23;1791247;80;21596;-82
2021/01/10 06:51:58;;;;;;;32.05;17.05;;;;;;;0.10;94.03;101247.56;1791677;80;21157;-82
2021/01/10 06:54:25;;;;;;;40.17;20.75;;;;;;;0.11;94.05;101251.86;1791484;79;21143;-82
2021/01/10 06:56:53;;;;;;;38.08;17.73;;;;;;;0.12;94.05;101256.64;1761341;80;21124;-82
2021/01/10 06:59:26;;;;;;;34.85;19.57;;;;;;;0.14;94.07;101255.62;1791731;80;21163;-82
2021/01/10 07:01:58;;;;;;;37.98;21.93;;;;;;;0.15;94.06;101255.16;1791243;80;21139;-82
2021/01/10 07:04:33;;;;;;;36.50;19.37;;;;;;;0.18;94.07;101261.09;1791670;80;21120;-82
2021/01/10 07:07:00;;;;;;;38.58;20.82;;;;;;;0.19;94.08;101253.61;1791720;80;21127;-82
2021/01/10 07:09:26;;;;;;;36.45;21.77;;;;;;;0.22;94.08;101259.15;1791506;80;21996;-82
2021/01/10 07:11:52;;;;;;;35.08;19.17;;;;;;;0.21;94.08;101256.98;1791450;80;21139;-81
2021/01/10 07:14:24;;;;;;;36.28;19.77;;;;;;;0.23;94.11;101265.63;1790750;80;21174;-82
2021/01/10 07:16:50;;;;;;;35.73;19.32;;;;;;;0.24;94.11;101263.41;1791670;80;21199;-82
2021/01/10 07:19:16;;;;;;;38.65;21.37;;;;;;;0.27;94.13;101268.48;1760753;80;21164;-82
2021/01/10 07:21:48;;;;;;;31.02;17.52;;;;;;;0.27;94.13;101267.17;1791645;80;21228;-82
2021/01/10 07:24:20;;;;;;;38.50;19.62;;;;;;;0.27;94.12;101264.55;1791213;80;21163;-82
2021/01/10 07:26:58;;;;;;;33.42;17.62;;;;;;;0.28;94.12;101266.22;1790844;80;21192;-82
2021/01/10 07:29:43;;;;;;;30.50;18.32;;;;;;;0.30;94.13;101265.69;1790937;80;21128;-82
2021/01/10 07:32:18;;;;;;;40.12;19.45;;;;;;;0.30;94.11;101270.94;1790962;80;21167;-82
2021/01/10 07:34:49;;;;;;;38.90;22.50;;;;;;;0.31;94.13;101271.33;1790988;80;21613;-81
2021/01/10 07:37:27;;;;;;;36.03;18.90;;;;;;;0.31;94.14;101274.41;1790814;80;21171;-83
2021/01/10 07:40:05;;;;;;;30.32;14.85;;;;;;;0.32;94.13;101283.48;1790650;80;21207;-83
2021/01/10 07:42:37;;;;;;;46.55;25.85;;;;;;;0.33;94.13;101282.56;1791031;80;21510;-82
2021/01/10 07:45:17;;;;;;;48.00;25.77;;;;;;;0.37;94.13;101285.87;1791005;80;21132;-83
2021/01/10 07:47:46;;;;;;;62.90;31.05;;;;;;;0.39;94.13;101291.41;1790935;80;21189;-83
2021/01/10 07:50:24;;;;;;;49.20;23.62;;;;;;;0.41;94.13;101286.94;1790846;80;21183;-83
2021/01/10 07:52:57;;;;;;;44.08;21.02;;;;;;;0.44;94.17;101298.57;1790783;80;21171;-82
2021/01/10 07:55:30;;;;;;;39.27;21.90;;;;;;;0.42;94.15;101295.17;1791036;80;21196;-82
2021/01/10 07:58:07;;;;;;;45.30;21.50;;;;;;;0.43;94.16;101296.88;1790753;80;21179;-82
2021/01/10 08:00:35;;;;;;;39.45;18.37;;;;;;;0.44;94.16;101294.64;1791119;80;21265;-81
2021/01/10 08:03:08;;;;;;;48.10;23.10;;;;;;;0.43;94.14;101295.56;1790829;80;21163;-82
2021/01/10 08:05:40;;;;;;;79.17;39.63;;;;;;;0.45;94.18;101293.72;1790954;80;21184;-82
2021/01/10 08:08:16;;;;;;;72.58;36.13;;;;;;;0.47;94.16;101294.47;1790857;80;21177;-82
2021/01/10 08:10:55;;;;;;;54.50;29.45;;;;;;;0.50;94.14;101300.86;1790770;80;21131;-82
2021/01/10 08:13:37;;;;;;;53.52;29.00;;;;;;;0.49;94.16;101300.46;1785295;80;21565;-82
2021/01/10 08:16:16;;;;;;;55.05;29.92;;;;;;;0.56;94.14;101311.96;1776386;80;21161;-81
2021/01/10 08:18:45;;;;;;;55.78;29.20;;;;;;;0.60;94.16;101312.18;1771973;80;21210;-81
2021/01/10 08:21:14;;;;;;;39.80;20.60;;;;;;;0.62;94.15;101318.17;1776373;80;21132;-81
2021/01/10 08:23:45;;;;;;;29.60;14.40;;;;;;;0.60;94.18;101313.48;1776584;80;21612;-82
2021/01/10 08:26:15;;;;;;;42.90;20.82;;;;;;;0.58;94.17;101314.02;1776648;80;22422;-81
2021/01/10 08:28:45;;;;;;;35.15;18.17;;;;;;;0.58;94.18;101316.19;1776537;80;21172;-81
2021/01/10 08:31:15;;;;;;;36.53;18.40;;;;;;;0.57;94.16;101323.66;1774328;80;21558;-81
2021/01/10 08:33:43;;;;;;;36.88;18.92;;;;;;;0.56;94.16;101330.33;1776997;80;21168;-81
2021/01/10 08:36:14;;;;;;;43.68;20.88;;;;;;;0.57;94.16;101329.38;1776752;80;21637;-81
2021/01/10 08:38:54;;;;;;;39.80;21.00;;;;;;;0.59;94.16;101331.47;1776758;80;21252;-81
2021/01/10 08:41:32;;;;;;;;;;;;;;;0.62;94.17;101332.61;1779271;80;21652;-82
2021/01/10 08:44:05;;;;;;;61.08;27.27;;;;;;;0.62;94.18;101329.53;1776377;80;20322;-81
2021/01/10 08:46:33;;;;;;;64.30;26.42;;;;;;;0.63;94.20;101335.63;1749760;80;21229;-81
2021/01/10 08:49:00;;;;;;;59.08;25.65;;;;;;;0.64;94.20;101335.98;1776871;80;21176;-81
2021/01/10 08:51:39;;;;;;;53.80;23.45;;;;;;;0.64;94.20;101336.84;1776750;80;21991;-81
2021/01/10 08:54:11;;;;;;;47.55;22.22;;;;;;;0.65;94.21;101340.31;1776426;80;21130;-81
2021/01/10 08:56:38;;;;;;;85.28;44.48;;;;;;;0.64;94.22;101337.30;1776946;80;21191;-81
2021/01/10 08:59:05;;;;;;;72.50;34.13;;;;;;;0.66;94.24;101342.87;1776731;80;21538;-81
2021/01/10 09:01:31;;;;;;;60.05;26.25;;;;;;;0.67;94.23;101348.47;1776774;80;21136;-81
2021/01/10 09:04:06;;;;;;;76.37;31.80;;;;;;;0.68;94.24;101346.70;1776704;80;22084;-81
2021/01/10 09:06:46;;;;;;;59.93;27.40;;;;;;;0.67;94.24;101346.34;1776557;80;21176;-81
2021/01/10 09:09:39;;;;;;;68.78;32.17;;;;;;;0.65;94.23;101350.81;1776807;80;21547;-81
2021/01/10 09:12:13;;;;;;;43.78;21.82;;;;;;;0.67;94.22;101352.91;1776581;80;21120;-81
2021/01/10 09:15:09;;;;;;;52.67;23.92;;;;;;;0.65;94.23;101349.04;1787913;79;21226;-81
2021/01/10 09:17:38;;;;;;;44.05;20.72;;;;;;;0.66;94.22;101355.98;1790759;80;21234;-81
2021/01/10 09:20:08;;;;;;;66.77;34.95;;;;;;;0.66;94.22;101357.77;1793071;78;21159;-81
2021/01/10 09:22:35;;;;;;;;;;;;;;;0.66;94.22;101351.20;1793699;80;21093;-81
2021/01/10 09:25:15;;;;;;;100.02;43.33;;;;;;;0.66;94.21;101360.39;1790330;80;20367;-81
2021/01/10 09:28:19;;;;;;;150.87;73.25;;;;;;;0.67;94.22;101362.91;1790851;80;21131;-81
2021/01/10 09:30:53;;;;;;;240.92;125.07;;;;;;;0.68;94.22;101359.83;1790833;80;21186;-81
2021/01/10 09:33:32;;;;;;;89.72;42.83;;;;;;;0.68;94.21;101358.52;1790257;80;21211;-81
2021/01/10 09:36:00;;;;;;;71.47;39.27;;;;;;;0.68;94.21;101360.67;1790933;80;21179;-81
2021/01/10 09:38:29;;;;;;;79.37;39.23;;;;;;;0.71;94.21;101359.66;1790521;80;21156;-81
2021/01/10 09:41:08;;;;;;;90.72;43.05;;;;;;;0.69;94.20;101360.22;1790832;80;21215;-81
2021/01/10 09:43:53;;;;;;;97.13;44.07;;;;;;;0.71;94.19;101357.03;1791175;80;21143;-82
2021/01/10 09:46:36;;;;;;;44.10;23.15;;;;;;;0.70;94.20;101354.89;1790735;80;21155;-81
2021/01/10 09:49:04;;;;;;;68.45;32.20;;;;;;;0.74;94.20;101358.20;1804782;79;21120;-81
2021/01/10 09:51:40;;;;;;;63.35;28.83;;;;;;;0.78;94.22;101354.45;1804296;79;21160;-81
2021/01/10 09:54:18;;;;;;;72.30;34.00;;;;;;;0.76;94.21;101355.02;1804560;79;21196;-81
2021/01/10 09:56:56;;;;;;;100.33;47.03;;;;;;;0.77;94.23;101350.16;1804390;78;21194;-81
2021/01/10 09:59:56;;;;;;;65.97;35.90;;;;;;;0.77;94.23;101355.41;1797631;78;21171;-81
2021/01/10 10:02:36;;;;;;;56.40;31.30;;;;;;;0.79;94.21;101358.31;1790880;80;21171;-81
2021/01/10 10:05:19;;;;;;;73.83;38.63;;;;;;;0.84;94.22;101354.13;1810657;78;21183;-81
2021/01/10 10:07:47;;;;;;;48.83;25.85;;;;;;;0.83;94.22;101355.06;1795137;78;21616;-82
2021/01/10 10:10:32;;;;;;;49.77;26.07;;;;;;;0.80;94.20;101347.36;1791108;78;21193;-81
2021/01/10 10:13:04;;;;;;;52.95;27.75;;;;;;;0.77;94.21;101347.53;1800808;78;21131;-81
2021/01/10 10:15:49;;;;;;;54.88;29.02;;;;;;;0.76;94.19;101349.77;1799806;78;21230;-81
2021/01/10 10:18:24;;;;;;;42.17;22.67;;;;;;;0.77;94.20;101356.25;1792780;78;21150;-81
2021/01/10 10:20:51;;;;;;;55.00;28.52;;;;;;;0.78;94.21;101349.20;1799850;78;21139;-81
2021/01/10 10:23:17;;;;;;;58.80;36.08;;;;;;;0.78;94.21;101350.52;1791205;78;22132;-81
2021/01/10 10:25:46;;;;;;;67.25;33.98;;;;;;;0.78;94.21;101347.89;1790636;80;21136;-81
2021/01/10 10:28:13;;;;;;;109.42;49.53;;;;;;;0.78;94.20;101358.39;1803097;78;21190;-82
2021/01/10 10:30:39;;;;;;;114.32;53.98;;;;;;;0.79;94.20;101349.59;1814789;78;21139;-81
2021/01/10 10:33:06;;;;;;;121.57;52.60;;;;;;;0.84;94.21;101354.13;1822876;78;21266;-81
2021/01/10 10:35:32;;;;;;;118.62;52.33;;;;;;;0.85;94.20;101345.30;1791235;78;21195;-82
2021/01/10 10:37:59;;;;;;;55.35;28.77;;;;;;;0.86;94.20;101350.95;1795329;78;21607;-82
2021/01/10 10:40:25;;;;;;;65.37;35.70;;;;;;;0.81;94.21;101346.44;1820887;78;21096;-82
2021/01/10 10:42:52;;;;;;;83.30;38.40;;;;;;;0.77;94.20;101348.84;1822744;78;21135;-81
2021/01/10 10:45:18;;;;;;;64.10;29.35;;;;;;;0.77;94.18;101356.72;1811599;78;21182;-79
2021/01/10 10:47:45;;;;;;;66.70;31.85;;;;;;;0.79;94.20;101352.22;1794875;78;21190;-79
2021/01/10 10:50:11;;;;;;;63.10;31.07;;;;;;;0.82;94.18;101353.36;1798266;78;21193;-79
2021/01/10 10:52:38;;;;;;;71.77;32.50;;;;;;;0.82;94.22;101345.02;1789737;80;21621;-79
2021/01/10 10:55:05;;;;;;;155.25;54.15;;;;;;;0.80;94.20;101351.30;1781871;80;21136;-79
2021/01/10 10:57:32;;;;;;;159.43;58.60;;;;;;;0.80;94.21;101345.58;1781990;80;21172;-79
2021/01/10 10:59:58;;;;;;;185.45;60.92;;;;;;;0.78;94.22;101342.64;1781655;80;22081;-79
2021/01/10 11:02:25;;;;;;;170.05;55.33;;;;;;;0.75;94.22;101336.25;1782193;80;21124;-79
2021/01/10 11:04:51;;;;;;;179.82;59.98;;;;;;;0.73;94.21;101336.35;1786703;78;21213;-80
2021/01/10 11:07:17;;;;;;;151.30;54.55;;;;;;;0.75;94.19;101330.53;1823469;78;21757;-81
2021/01/10 11:09:45;;;;;;;111.62;39.63;;;;;;;0.79;94.21;101329.91;1823474;78;21111;-81
2021/01/10 11:12:13;;;;;;;86.95;34.40;;;;;;;0.81;94.21;101330.69;1823455;78;21151;-80
2021/01/10 11:14:40;;;;;;;140.95;49.53;;;;;;;0.78;94.20;101330.36;1812348;78;21171;-80
2021/01/10 11:17:08;;;;;;;97.02;36.70;;;;;;;0.81;94.19;101333.31;1796188;78;21139;-81
2021/01/10 11:19:34;;;;;;;67.10;31.25;;;;;;;0.80;94.20;101326.35;1792264;78;21554;-80
2021/01/10 11:22:03;;;;;;;73.95;33.02;;;;;;;0.82;94.18;101329.73;1816441;78;21147;-80
2021/01/10 11:24:30;;;;;;;79.07;36.25;;;;;;;0.79;94.19;101324.66;1806633;78;21197;-80
2021/01/10 11:26:57;;;;;;;90.38;39.30;;;;;;;0.81;94.18;101325.43;1793635;78;21132;-73
2021/01/10 11:29:23;;;;;;;63.35;30.45;;;;;;;0.81;94.18;101323.62;1791511;78;21151;-73
2021/01/10 11:31:49;;;;;;;66.72;32.50;;;;;;;0.82;94.19;101327.10;1796436;78;21135;-73
2021/01/10 11:34:16;;;;;;;88.12;39.05;;;;;;;0.81;94.17;101324.13;1811298;78;21557;-73
2021/01/10 11:36:49;;;;;;;68.40;32.15;;;;;;;0.81;94.18;101326.25;1820091;78;21202;-73
2021/01/10 11:39:16;;;;;;;136.77;67.78;;;;;;;0.84;94.17;101326.57;1804742;78;21632;-79
2021/01/10 11:41:49;;;;;;;71.42;40.67;;;;;;;0.84;94.17;101326.57;1808160;78;21187;-78
2021/01/10 11:44:16;;;;;;;80.00;42.75;;;;;;;0.82;94.17;101329.73;1790117;80;21139;-78
2021/01/10 11:46:44;;;;;;;84.85;42.67;;;;;;;0.85;94.18;101324.30;1770703;80;21164;-78
2021/01/10 11:49:11;;;;;;;57.93;31.17;;;;;;;0.83;94.17;101323.55;1781315;80;22150;-78
2021/01/10 11:51:37;;;;;;;56.95;31.05;;;;;;;0.79;94.17;101323.34;1770060;80;21203;-78
2021/01/10 11:54:04;;;;;;;81.37;44.55;;;;;;;0.77;94.18;101318.66;1736291;81;21551;-78
2021/01/10 11:56:31;;;;;;;93.35;46.60;;;;;;;0.75;94.16;101323.97;1754196;81;21619;-77